Henrietta, New York
Current Conditions -  °F | °C
As of 3:54 PM on Friday 21 Nov 2014 (Local Time) from KROC Reporting Station
Few Clouds Few Clouds  
Wind Chill: 18°   Ceiling: Unl
Heat Index: 28°   Visibility: 10mi
Dew Point: 13°   Wind: 12mph
Humidity: 53%   Direction: 260°W
Pressure: 30.4"   Gusts: NA
Location:  43.06°N, 77.61°W
Report Text: KROC 212054Z 26010KT 10SM FEW028 M02/M11 A3040 RMK AO2 SLP307 T10221106 53012
Loading
Personal Weather Stations






























Interactive Weather Map New forecast layout! Learn more

10-Day Weather Forecast

Advertisements
Track Severe Weather on mobile